EST,Max TemperatureF,Mean TemperatureF,Min TemperatureF,Max Dew PointF,MeanDew PointF,Min DewpointF,Max Humidity, Mean Humidity, Min Humidity, Max Sea Level PressureIn, Mean Sea Level PressureIn, Min Sea Level PressureIn, Max VisibilityMiles, Mean VisibilityMiles, Min VisibilityMiles, Max Wind SpeedMPH, Mean Wind SpeedMPH, Max Gust SpeedMPH,PrecipitationIn, CloudCover, Events, WindDirDegrees
2013-1-1,8,-4,-16,9,-6,-17,100,100,100,,,,0,0,0,85,75,98,0.20,,Fog-Snow,297
2013-1-2,0,-11,-18,-11,-16,-33,100,86,37,,,,0,0,0,86,72,96,0.00,0,Fog-Snow,310
2013-1-3,3,-1,-5,0,-12,-29,100,66,27,,,,0,0,0,61,37,59,0.27,4,Fog-Snow,320
2013-1-4,8,4,0,9,5,0,100,100,100,,,,0,0,0,83,68,89,0.32,,Fog-Snow,288
2013-1-5,10,4,-2,7,-3,-15,100,80,31,,,,0,0,0,91,73,107,0.00,6,Fog-Snow,297
2013-1-6,12,8,5,12,6,-17,100,90,29,,,,0,0,0,58,42,55,0.07,8,Fog-Snow,275
2013-1-7,12,6,1,12,-6,-53,100,64,5,,,,0,0,0,59,48,67,0.05,1,Fog-Snow,301
2013-1-8,19,14,10,14,5,-4,100,67,38,,,,0,0,0,83,66,91,0.00,3,Fog,287
2013-1-9,23,18,14,21,9,-11,100,68,24,,,,0,0,0,86,41,104,0.19,5,Fog-Snow,262
2013-1-10,24,16,8,16,9,-6,100,85,26,,,,0,0,0,84,72,101,0.11,1,Fog-Snow,309
2013-1-11,32,28,23,28,13,-17,100,58,14,,,,15,2,0,41,25,53,0.00,5,Fog-Rain,258
2013-1-12,37,32,26,36,31,25,100,91,60,,,,0,0,0,53,37,44,0.01,6,Fog,256
2013-1-13,48,42,37,41,31,9,100,74,20,,,,2,0,0,68,39,76,0.00,6,Fog-Rain,258
2013-1-14,41,26,8,41,26,9,100,100,95,,,,0,0,0,83,61,89,0.04,1,Fog-Rain,281
2013-1-15,15,10,6,10,-1,-11,100,63,32,,,,0,0,0,44,36,44,0.00,5,Fog,296
2013-1-16,17,12,8,18,9,-9,100,85,35,,,,0,0,0,60,31,66,0.41,7,Fog-Snow,246
2013-1-17,10,0,-13,10,-7,-40,100,78,25,,,,0,0,0,84,60,94,0.35,6,Fog-Snow,288
2013-1-18,-5,-14,-22,-8,-27,-49,100,64,18,,,,15,2,0,72,62,86,0.00,4,Fog-Snow,295
2013-1-19,21,7,-5,18,10,-6,100,98,74,,,,20,1,0,71,54,82,0.37,8,Fog-Snow,272
2013-1-20,19,5,-11,19,9,-11,100,97,80,,,,0,0,0,88,63,99,0.17,5,Fog-Snow,266
2013-1-21,-5,-10,-16,-6,-13,-24,100,92,59,,,,4,0,0,77,57,88,0.02,6,Fog-Snow,276
2013-1-22,-5,-15,-25,-6,-14,-26,100,99,77,,,,2,0,0,79,33,88,0.06,6,Fog-Snow,274
2013-1-23,-25,-30,-34,-27,-30,-35,100,98,76,,,,0,0,0,77,66,82,0.00,1,Fog,299
2013-1-24,-16,-24,-29,-17,-26,-29,100,93,63,,,,0,0,0,92,68,104,0.00,5,Fog-Snow,307
2013-1-25,3,-6,-16,-8,-26,-56,100,48,5,,,,13,2,0,83,58,102,0.00,6,Fog-Snow,308
2013-1-26,-2,-10,-18,-8,-21,-51,100,74,11,,,,15,2,0,77,32,84,0.03,5,Fog-Snow,314
2013-1-27,3,-6,-16,-9,-20,-33,100,56,24,,,,0,0,0,79,68,90,0.00,1,Fog,321
2013-1-28,23,12,1,23,9,-20,100,86,33,,,,6,0,0,47,34,,0.25,5,Fog-Snow,289
2013-1-29,32,26,19,30,20,7,100,78,37,,,,0,0,0,45,17,43,0.00,6,Fog-Snow,297
2013-1-30,41,34,28,41,38,28,100,100,100,,,,0,0,0,79,57,101,0.34,,Fog-Rain,240
2013-1-31,41,20,-4,41,19,-4,100,100,100,,,,0,0,0,98,65,110,0.93,,Fog-Rain-Snow,255